sensor_id;sensor_type;location;lat;lon;timestamp;pressure;altitude;pressure_sealevel;temperature;humidity
64610;BME280;51019;46.090;6.350;2023-05-29T00:00:14;96359.19;;;14.35;100.00
64610;BME280;51019;46.090;6.350;2023-05-29T00:02:43;96355.59;;;14.28;100.00
64610;BME280;51019;46.090;6.350;2023-05-29T00:05:17;96368.94;;;14.27;100.00
64610;BME280;51019;46.090;6.350;2023-05-29T00:07:45;96330.78;;;14.06;100.00
64610;BME280;51019;46.090;6.350;2023-05-29T00:10:16;96354.97;;;14.18;100.00
64610;BME280;51019;46.090;6.350;2023-05-29T00:12:46;96362.78;;;13.95;100.00
64610;BME280;51019;46.090;6.350;2023-05-29T00:15:14;96339.56;;;13.82;100.00
64610;BME280;51019;46.090;6.350;2023-05-29T00:17:42;96363.44;;;13.57;100.00
64610;BME280;51019;46.090;6.350;2023-05-29T00:20:10;96366.75;;;13.51;100.00
64610;BME280;51019;46.090;6.350;2023-05-29T00:22:40;96352.94;;;13.49;100.00
64610;BME280;51019;46.090;6.350;2023-05-29T00:25:10;96359.34;;;13.62;100.00
64610;BME280;51019;46.090;6.350;2023-05-29T00:27:38;96367.41;;;13.44;100.00
64610;BME280;51019;46.090;6.350;2023-05-29T00:30:07;96366.59;;;13.52;100.00
64610;BME280;51019;46.090;6.350;2023-05-29T00:32:35;96364.75;;;13.77;100.00
64610;BME280;51019;46.090;6.350;2023-05-29T00:35:02;96349.97;;;13.52;100.00
64610;BME280;51019;46.090;6.350;2023-05-29T00:37:30;96363.63;;;13.63;100.00
64610;BME280;51019;46.090;6.350;2023-05-29T00:39:59;96352.78;;;13.42;100.00
64610;BME280;51019;46.090;6.350;2023-05-29T00:42:28;96368.75;;;13.65;100.00
64610;BME280;51019;46.090;6.350;2023-05-29T00:44:56;96375.31;;;13.69;100.00
64610;BME280;51019;46.090;6.350;2023-05-29T00:47:24;96363.47;;;13.49;100.00
64610;BME280;51019;46.090;6.350;2023-05-29T00:49:52;96364.41;;;13.15;100.00
64610;BME280;51019;46.090;6.350;2023-05-29T00:52:21;96358.44;;;12.97;100.00
64610;BME280;51019;46.090;6.350;2023-05-29T00:54:51;96378.72;;;13.21;100.00
64610;BME280;51019;46.090;6.350;2023-05-29T00:57:28;96377.25;;;13.34;100.00
64610;BME280;51019;46.090;6.350;2023-05-29T00:59:56;96374.31;;;13.37;100.00
64610;BME280;51019;46.090;6.350;2023-05-29T01:02:26;96366.56;;;13.28;100.00
64610;BME280;51019;46.090;6.350;2023-05-29T01:04:56;96374.00;;;13.49;100.00
64610;BME280;51019;46.090;6.350;2023-05-29T01:07:24;96364.63;;;13.30;100.00
64610;BME280;51019;46.090;6.350;2023-05-29T01:09:52;96370.69;;;13.30;100.00
64610;BME280;51019;46.090;6.350;2023-05-29T01:12:29;96368.88;;;13.23;100.00
64610;BME280;51019;46.090;6.350;2023-05-29T01:15:21;96375.47;;;13.27;100.00
64610;BME280;51019;46.090;6.350;2023-05-29T01:18:07;96369.69;;;13.15;100.00
64610;BME280;51019;46.090;6.350;2023-05-29T01:20:40;96360.56;;;13.01;100.00
64610;BME280;51019;46.090;6.350;2023-05-29T01:23:26;96371.44;;;13.06;100.00
64610;BME280;51019;46.090;6.350;2023-05-29T01:26:07;96368.91;;;12.81;100.00
64610;BME280;51019;46.090;6.350;2023-05-29T01:28:48;96368.41;;;12.77;100.00
64610;BME280;51019;46.090;6.350;2023-05-29T01:31:19;96371.25;;;12.92;100.00
64610;BME280;51019;46.090;6.350;2023-05-29T01:33:52;96372.44;;;12.97;100.00
64610;BME280;51019;46.090;6.350;2023-05-29T01:36:20;96388.03;;;12.99;100.00
64610;BME280;51019;46.090;6.350;2023-05-29T01:38:49;96362.00;;;12.71;100.00
64610;BME280;51019;46.090;6.350;2023-05-29T01:41:25;96374.38;;;12.45;100.00
64610;BME280;51019;46.090;6.350;2023-05-29T01:43:56;96357.78;;;12.45;100.00
64610;BME280;51019;46.090;6.350;2023-05-29T01:46:25;96369.09;;;12.37;100.00
64610;BME280;51019;46.090;6.350;2023-05-29T01:49:06;96380.81;;;12.51;100.00
64610;BME280;51019;46.090;6.350;2023-05-29T01:51:33;96370.47;;;12.49;100.00
64610;BME280;51019;46.090;6.350;2023-05-29T01:54:02;96358.38;;;12.30;100.00
64610;BME280;51019;46.090;6.350;2023-05-29T01:56:30;96373.06;;;12.41;100.00
64610;BME280;51019;46.090;6.350;2023-05-29T01:59:02;96380.97;;;12.49;100.00
64610;BME280;51019;46.090;6.350;2023-05-29T02:01:31;96379.31;;;12.48;100.00
64610;BME280;51019;46.090;6.350;2023-05-29T02:03:59;96381.72;;;12.33;100.00
64610;BME280;51019;46.090;6.350;2023-05-29T02:06:26;96375.22;;;12.20;100.00
64610;BME280;51019;46.090;6.350;2023-05-29T02:08:53;96363.53;;;12.06;100.00
64610;BME280;51019;46.090;6.350;2023-05-29T02:11:23;96370.69;;;11.96;100.00
64610;BME280;51019;46.090;6.350;2023-05-29T02:13:51;96330.94;;;11.99;100.00
64610;BME280;51019;46.090;6.350;2023-05-29T02:16:21;96348.94;;;12.20;100.00
64610;BME280;51019;46.090;6.350;2023-05-29T02:18:48;96363.97;;;12.02;100.00
64610;BME280;51019;46.090;6.350;2023-05-29T02:21:17;96356.47;;;12.07;100.00
64610;BME280;51019;46.090;6.350;2023-05-29T02:23:44;96362.44;;;11.91;100.00
64610;BME280;51019;46.090;6.350;2023-05-29T02:26:12;96359.31;;;12.21;100.00
64610;BME280;51019;46.090;6.350;2023-05-29T02:28:41;96358.56;;;12.03;100.00
64610;BME280;51019;46.090;6.350;2023-05-29T02:31:08;96360.63;;;11.91;100.00
64610;BME280;51019;46.090;6.350;2023-05-29T02:33:38;96348.59;;;11.81;100.00
64610;BME280;51019;46.090;6.350;2023-05-29T02:36:06;96353.19;;;11.87;100.00
64610;BME280;51019;46.090;6.350;2023-05-29T02:38:37;96335.16;;;11.84;100.00
64610;BME280;51019;46.090;6.350;2023-05-29T02:41:06;96349.34;;;11.99;100.00
64610;BME280;51019;46.090;6.350;2023-05-29T02:43:33;96344.00;;;11.83;100.00
64610;BME280;51019;46.090;6.350;2023-05-29T02:46:01;96355.94;;;11.77;100.00
64610;BME280;51019;46.090;6.350;2023-05-29T02:48:29;96352.63;;;12.01;100.00
64610;BME280;51019;46.090;6.350;2023-05-29T02:50:58;96350.09;;;11.83;100.00
64610;BME280;51019;46.090;6.350;2023-05-29T02:53:26;96344.81;;;11.65;100.00
64610;BME280;51019;46.090;6.350;2023-05-29T02:55:53;96345.41;;;11.34;100.00
64610;BME280;51019;46.090;6.350;2023-05-29T02:58:21;96370.16;;;11.49;100.00
64610;BME280;51019;46.090;6.350;2023-05-29T03:00:48;96354.53;;;11.47;100.00
64610;BME280;51019;46.090;6.350;2023-05-29T03:03:16;96364.84;;;11.67;100.00
64610;BME280;51019;46.090;6.350;2023-05-29T03:05:43;96359.25;;;11.61;100.00
64610;BME280;51019;46.090;6.350;2023-05-29T03:08:12;96357.94;;;11.65;100.00
64610;BME280;51019;46.090;6.350;2023-05-29T03:10:40;96351.28;;;11.53;100.00
64610;BME280;51019;46.090;6.350;2023-05-29T03:13:09;96355.22;;;11.49;100.00
64610;BME280;51019;46.090;6.350;2023-05-29T03:15:37;96334.16;;;11.41;100.00
64610;BME280;51019;46.090;6.350;2023-05-29T03:18:17;96348.69;;;11.53;100.00
64610;BME280;51019;46.090;6.350;2023-05-29T03:20:45;96345.13;;;11.62;100.00
64610;BME280;51019;46.090;6.350;2023-05-29T03:23:20;96338.66;;;11.75;100.00
64610;BME280;51019;46.090;6.350;2023-05-29T03:25:48;96321.03;;;11.41;100.00
64610;BME280;51019;46.090;6.350;2023-05-29T03:28:16;96321.22;;;11.40;100.00
64610;BME280;51019;46.090;6.350;2023-05-29T03:30:43;96332.16;;;11.35;100.00
64610;BME280;51019;46.090;6.350;2023-05-29T03:33:11;96331.13;;;11.54;100.00
64610;BME280;51019;46.090;6.350;2023-05-29T03:35:41;96329.06;;;11.40;100.00
64610;BME280;51019;46.090;6.350;2023-05-29T03:38:10;96324.06;;;11.11;100.00
64610;BME280;51019;46.090;6.350;2023-05-29T03:40:41;96325.41;;;11.15;100.00
64610;BME280;51019;46.090;6.350;2023-05-29T03:43:12;96340.69;;;11.37;100.00
64610;BME280;51019;46.090;6.350;2023-05-29T03:45:39;96345.84;;;11.29;100.00
64610;BME280;51019;46.090;6.350;2023-05-29T03:48:09;96346.38;;;10.97;100.00
64610;BME280;51019;46.090;6.350;2023-05-29T03:50:36;96349.63;;;11.09;100.00
64610;BME280;51019;46.090;6.350;2023-05-29T03:53:05;96336.25;;;10.84;100.00
64610;BME280;51019;46.090;6.350;2023-05-29T03:55:32;96358.25;;;10.83;100.00
64610;BME280;51019;46.090;6.350;2023-05-29T03:58:03;96350.41;;;10.74;100.00
64610;BME280;51019;46.090;6.350;2023-05-29T04:00:30;96368.03;;;10.99;100.00
64610;BME280;51019;46.090;6.350;2023-05-29T04:02:59;96367.84;;;10.93;100.00
64610;BME280;51019;46.090;6.350;2023-05-29T04:05:27;96367.97;;;11.09;100.00
64610;BME280;51019;46.090;6.350;2023-05-29T04:07:59;96368.75;;;10.74;100.00
64610;BME280;51019;46.090;6.350;2023-05-29T04:10:26;96378.31;;;10.93;100.00
64610;BME280;51019;46.090;6.350;2023-05-29T04:12:55;96360.03;;;10.83;100.00
64610;BME280;51019;46.090;6.350;2023-05-29T04:15:24;96374.88;;;11.10;100.00
64610;BME280;51019;46.090;6.350;2023-05-29T04:17:51;96383.25;;;10.96;100.00
64610;BME280;51019;46.090;6.350;2023-05-29T04:20:20;96389.50;;;11.12;100.00
64610;BME280;51019;46.090;6.350;2023-05-29T04:22:47;96363.94;;;11.14;100.00
64610;BME280;51019;46.090;6.350;2023-05-29T04:25:14;96392.66;;;11.16;100.00
64610;BME280;51019;46.090;6.350;2023-05-29T04:27:44;96390.31;;;11.13;100.00
64610;BME280;51019;46.090;6.350;2023-05-29T04:30:15;96386.78;;;11.22;100.00
64610;BME280;51019;46.090;6.350;2023-05-29T04:32:48;96373.38;;;10.89;100.00
64610;BME280;51019;46.090;6.350;2023-05-29T04:35:17;96396.47;;;11.21;100.00
64610;BME280;51019;46.090;6.350;2023-05-29T04:37:46;96389.88;;;11.35;100.00
64610;BME280;51019;46.090;6.350;2023-05-29T04:40:14;96365.28;;;11.36;100.00
64610;BME280;51019;46.090;6.350;2023-05-29T04:42:43;96366.69;;;11.31;100.00
64610;BME280;51019;46.090;6.350;2023-05-29T04:45:11;96396.38;;;11.49;100.00
64610;BME280;51019;46.090;6.350;2023-05-29T04:47:39;96375.59;;;11.55;100.00
64610;BME280;51019;46.090;6.350;2023-05-29T04:50:13;96393.22;;;11.81;100.00
64610;BME280;51019;46.090;6.350;2023-05-29T04:52:42;96393.44;;;11.70;100.00
64610;BME280;51019;46.090;6.350;2023-05-29T04:55:10;96379.72;;;11.58;100.00
64610;BME280;51019;46.090;6.350;2023-05-29T04:57:37;96397.94;;;11.59;100.00
64610;BME280;51019;46.090;6.350;2023-05-29T05:00:06;96404.69;;;11.80;100.00
64610;BME280;51019;46.090;6.350;2023-05-29T05:02:34;96379.41;;;11.79;100.00
64610;BME280;51019;46.090;6.350;2023-05-29T05:05:03;96413.69;;;11.95;100.00
64610;BME280;51019;46.090;6.350;2023-05-29T05:07:34;96413.31;;;11.90;100.00
64610;BME280;51019;46.090;6.350;2023-05-29T05:10:02;96415.56;;;11.85;100.00
64610;BME280;51019;46.090;6.350;2023-05-29T05:12:29;96421.66;;;12.11;100.00
64610;BME280;51019;46.090;6.350;2023-05-29T05:14:56;96396.78;;;12.23;100.00
64610;BME280;51019;46.090;6.350;2023-05-29T05:17:24;96420.09;;;12.52;100.00
64610;BME280;51019;46.090;6.350;2023-05-29T05:19:55;96411.88;;;12.55;100.00
64610;BME280;51019;46.090;6.350;2023-05-29T05:22:24;96414.28;;;12.75;100.00
64610;BME280;51019;46.090;6.350;2023-05-29T05:24:55;96396.09;;;12.97;100.00
64610;BME280;51019;46.090;6.350;2023-05-29T05:27:23;96414.78;;;13.28;100.00
64610;BME280;51019;46.090;6.350;2023-05-29T05:29:50;96410.69;;;13.42;100.00
64610;BME280;51019;46.090;6.350;2023-05-29T05:32:18;96411.81;;;13.56;100.00
64610;BME280;51019;46.090;6.350;2023-05-29T05:34:46;96403.09;;;13.55;100.00
64610;BME280;51019;46.090;6.350;2023-05-29T05:37:14;96411.50;;;13.42;100.00
64610;BME280;51019;46.090;6.350;2023-05-29T05:39:42;96421.72;;;13.78;100.00
64610;BME280;51019;46.090;6.350;2023-05-29T05:42:13;96415.13;;;13.90;100.00
64610;BME280;51019;46.090;6.350;2023-05-29T05:44:40;96403.47;;;13.76;100.00
64610;BME280;51019;46.090;6.350;2023-05-29T05:47:08;96383.81;;;14.20;100.00
64610;BME280;51019;46.090;6.350;2023-05-29T05:49:35;96403.34;;;14.49;100.00
64610;BME280;51019;46.090;6.350;2023-05-29T05:52:02;96399.63;;;14.75;100.00
64610;BME280;51019;46.090;6.350;2023-05-29T05:54:30;96409.78;;;14.55;100.00
64610;BME280;51019;46.090;6.350;2023-05-29T05:56:57;96409.13;;;14.92;100.00
64610;BME280;51019;46.090;6.350;2023-05-29T05:59:27;96394.38;;;14.75;100.00
64610;BME280;51019;46.090;6.350;2023-05-29T06:01:55;96409.88;;;15.09;100.00
64610;BME280;51019;46.090;6.350;2023-05-29T06:04:22;96411.63;;;15.16;100.00
64610;BME280;51019;46.090;6.350;2023-05-29T06:06:49;96417.50;;;15.26;100.00
64610;BME280;51019;46.090;6.350;2023-05-29T06:09:17;96420.06;;;15.43;100.00
64610;BME280;51019;46.090;6.350;2023-05-29T06:11:44;96415.69;;;15.27;100.00
64610;BME280;51019;46.090;6.350;2023-05-29T06:14:11;96419.63;;;15.62;100.00
64610;BME280;51019;46.090;6.350;2023-05-29T06:16:41;96423.50;;;15.74;100.00
64610;BME280;51019;46.090;6.350;2023-05-29T06:19:08;96427.38;;;16.24;100.00
64610;BME280;51019;46.090;6.350;2023-05-29T06:21:35;96428.09;;;16.32;100.00
64610;BME280;51019;46.090;6.350;2023-05-29T06:24:03;96420.31;;;16.02;100.00
64610;BME280;51019;46.090;6.350;2023-05-29T06:26:30;96415.69;;;16.33;100.00
64610;BME280;51019;46.090;6.350;2023-05-29T06:28:57;96400.53;;;16.12;100.00
64610;BME280;51019;46.090;6.350;2023-05-29T06:31:25;96420.91;;;17.00;100.00
64610;BME280;51019;46.090;6.350;2023-05-29T06:33:54;96420.09;;;16.85;100.00
64610;BME280;51019;46.090;6.350;2023-05-29T06:36:22;96419.09;;;16.56;100.00
64610;BME280;51019;46.090;6.350;2023-05-29T06:38:49;96424.09;;;16.51;100.00
64610;BME280;51019;46.090;6.350;2023-05-29T06:41:18;96406.16;;;16.76;100.00
64610;BME280;51019;46.090;6.350;2023-05-29T06:43:48;96421.84;;;16.92;100.00
64610;BME280;51019;46.090;6.350;2023-05-29T06:46:17;96423.00;;;17.40;100.00
64610;BME280;51019;46.090;6.350;2023-05-29T06:48:46;96424.75;;;17.48;100.00
64610;BME280;51019;46.090;6.350;2023-05-29T06:51:17;96427.56;;;17.47;100.00
64610;BME280;51019;46.090;6.350;2023-05-29T06:53:45;96431.38;;;18.01;100.00
64610;BME280;51019;46.090;6.350;2023-05-29T06:56:12;96424.78;;;18.19;100.00
64610;BME280;51019;46.090;6.350;2023-05-29T06:58:40;96421.91;;;18.13;100.00
64610;BME280;51019;46.090;6.350;2023-05-29T07:01:11;96418.13;;;18.01;100.00
64610;BME280;51019;46.090;6.350;2023-05-29T07:03:39;96424.34;;;18.43;100.00
64610;BME280;51019;46.090;6.350;2023-05-29T07:06:06;96404.41;;;18.54;100.00
64610;BME280;51019;46.090;6.350;2023-05-29T07:08:35;96424.81;;;18.53;100.00
64610;BME280;51019;46.090;6.350;2023-05-29T07:11:04;96416.78;;;18.40;100.00
64610;BME280;51019;46.090;6.350;2023-05-29T07:13:32;96417.03;;;18.73;100.00
64610;BME280;51019;46.090;6.350;2023-05-29T07:15:59;96415.69;;;18.97;100.00
64610;BME280;51019;46.090;6.350;2023-05-29T07:18:27;96405.69;;;18.30;100.00
64610;BME280;51019;46.090;6.350;2023-05-29T07:20:55;96406.19;;;18.74;100.00
64610;BME280;51019;46.090;6.350;2023-05-29T07:23:24;96394.88;;;19.00;100.00
64610;BME280;51019;46.090;6.350;2023-05-29T07:25:53;96402.91;;;19.13;100.00
64610;BME280;51019;46.090;6.350;2023-05-29T07:28:20;96416.06;;;19.35;100.00
64610;BME280;51019;46.090;6.350;2023-05-29T07:30:48;96413.19;;;19.36;100.00
64610;BME280;51019;46.090;6.350;2023-05-29T07:33:16;96410.22;;;19.66;99.52
64610;BME280;51019;46.090;6.350;2023-05-29T07:35:43;96414.84;;;19.37;100.00
64610;BME280;51019;46.090;6.350;2023-05-29T07:38:11;96418.75;;;19.48;96.39
64610;BME280;51019;46.090;6.350;2023-05-29T07:40:38;96396.03;;;19.39;100.00
64610;BME280;51019;46.090;6.350;2023-05-29T07:43:07;96381.72;;;19.27;99.99
64610;BME280;51019;46.090;6.350;2023-05-29T07:45:36;96422.94;;;19.70;96.76
64610;BME280;51019;46.090;6.350;2023-05-29T07:48:04;96405.34;;;19.89;96.04
64610;BME280;51019;46.090;6.350;2023-05-29T07:50:33;96423.38;;;20.20;92.22
64610;BME280;51019;46.090;6.350;2023-05-29T07:53:00;96416.63;;;20.24;88.41
64610;BME280;51019;46.090;6.350;2023-05-29T07:55:28;96420.91;;;20.12;87.96
64610;BME280;51019;46.090;6.350;2023-05-29T07:57:57;96410.47;;;20.10;87.12
64610;BME280;51019;46.090;6.350;2023-05-29T08:00:27;96407.00;;;20.16;83.25
64610;BME280;51019;46.090;6.350;2023-05-29T08:02:54;96383.88;;;20.17;83.07
64610;BME280;51019;46.090;6.350;2023-05-29T08:05:22;96409.47;;;20.38;74.95
64610;BME280;51019;46.090;6.350;2023-05-29T08:07:51;96402.28;;;20.51;70.19
64610;BME280;51019;46.090;6.350;2023-05-29T08:10:19;96398.38;;;20.60;70.74
64610;BME280;51019;46.090;6.350;2023-05-29T08:12:48;96391.38;;;20.73;70.99
64610;BME280;51019;46.090;6.350;2023-05-29T08:15:17;96406.03;;;21.08;68.40
64610;BME280;51019;46.090;6.350;2023-05-29T08:17:47;96398.31;;;21.38;66.59
64610;BME280;51019;46.090;6.350;2023-05-29T08:20:15;96404.69;;;21.37;66.83
64610;BME280;51019;46.090;6.350;2023-05-29T08:22:42;96406.41;;;21.18;68.99
64610;BME280;51019;46.090;6.350;2023-05-29T08:25:10;96396.34;;;21.27;66.19
64610;BME280;51019;46.090;6.350;2023-05-29T08:27:38;96395.59;;;21.51;68.42
64610;BME280;51019;46.090;6.350;2023-05-29T08:30:07;96405.44;;;21.51;64.79
64610;BME280;51019;46.090;6.350;2023-05-29T08:32:34;96395.50;;;21.64;65.68
64610;BME280;51019;46.090;6.350;2023-05-29T08:35:04;96387.16;;;21.86;64.29
64610;BME280;51019;46.090;6.350;2023-05-29T08:37:32;96403.69;;;22.26;63.17
64610;BME280;51019;46.090;6.350;2023-05-29T08:40:00;96389.69;;;22.30;63.08
64610;BME280;51019;46.090;6.350;2023-05-29T08:42:36;96395.91;;;22.24;62.62
64610;BME280;51019;46.090;6.350;2023-05-29T08:45:09;96392.91;;;22.14;63.03
64610;BME280;51019;46.090;6.350;2023-05-29T08:47:40;96386.09;;;22.18;60.85
64610;BME280;51019;46.090;6.350;2023-05-29T08:50:10;96391.00;;;21.90;60.57
64610;BME280;51019;46.090;6.350;2023-05-29T08:52:38;96385.00;;;22.01;63.11
64610;BME280;51019;46.090;6.350;2023-05-29T08:55:07;96400.53;;;22.35;62.26
64610;BME280;51019;46.090;6.350;2023-05-29T08:57:37;96392.88;;;22.21;63.60
64610;BME280;51019;46.090;6.350;2023-05-29T09:00:06;96387.44;;;22.70;61.68
64610;BME280;51019;46.090;6.350;2023-05-29T09:02:38;96392.34;;;22.73;59.87
64610;BME280;51019;46.090;6.350;2023-05-29T09:05:10;96375.69;;;22.78;60.24
64610;BME280;51019;46.090;6.350;2023-05-29T09:07:38;96395.44;;;22.95;59.40
64610;BME280;51019;46.090;6.350;2023-05-29T09:10:07;96395.00;;;23.46;59.58
64610;BME280;51019;46.090;6.350;2023-05-29T09:12:39;96375.75;;;23.38;56.60
64610;BME280;51019;46.090;6.350;2023-05-29T09:15:16;96371.41;;;23.25;54.57
64610;BME280;51019;46.090;6.350;2023-05-29T09:17:49;96384.59;;;23.57;54.12
64610;BME280;51019;46.090;6.350;2023-05-29T09:20:21;96392.47;;;23.51;54.38
64610;BME280;51019;46.090;6.350;2023-05-29T09:22:54;96390.91;;;23.44;52.71
64610;BME280;51019;46.090;6.350;2023-05-29T09:25:25;96388.50;;;23.24;53.04
64610;BME280;51019;46.090;6.350;2023-05-29T09:27:58;96390.91;;;23.44;50.79
64610;BME280;51019;46.090;6.350;2023-05-29T09:30:35;96391.44;;;24.47;50.22
64610;BME280;51019;46.090;6.350;2023-05-29T09:33:03;96382.06;;;24.15;51.95
64610;BME280;51019;46.090;6.350;2023-05-29T09:35:34;96384.63;;;23.68;51.26
64610;BME280;51019;46.090;6.350;2023-05-29T09:38:02;96392.19;;;23.71;50.63
64610;BME280;51019;46.090;6.350;2023-05-29T09:40:31;96385.91;;;24.19;49.65
64610;BME280;51019;46.090;6.350;2023-05-29T09:43:03;96377.31;;;24.52;50.32
64610;BME280;51019;46.090;6.350;2023-05-29T09:45:36;96389.56;;;24.59;49.41
64610;BME280;51019;46.090;6.350;2023-05-29T09:48:05;96379.25;;;24.21;50.41
64610;BME280;51019;46.090;6.350;2023-05-29T09:50:35;96393.88;;;24.26;49.22
64610;BME280;51019;46.090;6.350;2023-05-29T09:53:02;96388.16;;;24.69;46.84
64610;BME280;51019;46.090;6.350;2023-05-29T09:55:33;96368.34;;;24.23;48.13
64610;BME280;51019;46.090;6.350;2023-05-29T09:58:02;96380.59;;;24.54;49.08
64610;BME280;51019;46.090;6.350;2023-05-29T10:00:32;96383.97;;;24.26;48.53
64610;BME280;51019;46.090;6.350;2023-05-29T10:02:59;96385.09;;;25.00;48.63
64610;BME280;51019;46.090;6.350;2023-05-29T10:05:27;96369.25;;;24.87;46.54
64610;BME280;51019;46.090;6.350;2023-05-29T10:07:58;96376.59;;;24.80;49.44
64610;BME280;51019;46.090;6.350;2023-05-29T10:10:27;96380.28;;;25.14;47.76
64610;BME280;51019;46.090;6.350;2023-05-29T10:12:55;96374.53;;;25.22;47.07
64610;BME280;51019;46.090;6.350;2023-05-29T10:15:24;96375.97;;;25.13;48.17
64610;BME280;51019;46.090;6.350;2023-05-29T10:18:00;96365.56;;;25.28;49.72
64610;BME280;51019;46.090;6.350;2023-05-29T10:20:31;96373.25;;;25.24;47.87
64610;BME280;51019;46.090;6.350;2023-05-29T10:23:01;96366.72;;;25.60;48.14
64610;BME280;51019;46.090;6.350;2023-05-29T10:25:33;96372.13;;;25.77;46.46
64610;BME280;51019;46.090;6.350;2023-05-29T10:28:02;96380.59;;;26.19;46.73
64610;BME280;51019;46.090;6.350;2023-05-29T10:30:38;96373.28;;;26.15;45.91
64610;BME280;51019;46.090;6.350;2023-05-29T10:33:22;96362.06;;;26.34;46.03
64610;BME280;51019;46.090;6.350;2023-05-29T10:36:02;96366.94;;;26.04;47.00
64610;BME280;51019;46.090;6.350;2023-05-29T10:38:34;96365.38;;;26.58;45.50
64610;BME280;51019;46.090;6.350;2023-05-29T10:41:35;96366.94;;;26.04;46.30
64610;BME280;51019;46.090;6.350;2023-05-29T10:44:39;96363.41;;;25.87;44.85
64610;BME280;51019;46.090;6.350;2023-05-29T10:47:10;96362.69;;;26.08;44.67
64610;BME280;51019;46.090;6.350;2023-05-29T10:49:38;96364.09;;;25.94;45.11
64610;BME280;51019;46.090;6.350;2023-05-29T10:52:10;96361.50;;;26.16;43.86
64610;BME280;51019;46.090;6.350;2023-05-29T10:54:51;96359.09;;;26.53;43.67
64610;BME280;51019;46.090;6.350;2023-05-29T10:57:23;96359.22;;;26.80;44.32
64610;BME280;51019;46.090;6.350;2023-05-29T10:59:59;96356.84;;;26.83;41.82
64610;BME280;51019;46.090;6.350;2023-05-29T11:02:26;96337.22;;;26.44;43.40
64610;BME280;51019;46.090;6.350;2023-05-29T11:05:05;96355.75;;;27.01;43.09
64610;BME280;51019;46.090;6.350;2023-05-29T11:07:33;96347.44;;;27.24;43.01
64610;BME280;51019;46.090;6.350;2023-05-29T11:10:15;96339.16;;;26.87;41.54
64610;BME280;51019;46.090;6.350;2023-05-29T11:12:57;96351.16;;;26.96;42.93
64610;BME280;51019;46.090;6.350;2023-05-29T11:15:25;96341.06;;;27.08;42.21
64610;BME280;51019;46.090;6.350;2023-05-29T11:17:54;96328.22;;;27.37;40.85
64610;BME280;51019;46.090;6.350;2023-05-29T11:20:28;96324.41;;;27.11;43.39
64610;BME280;51019;46.090;6.350;2023-05-29T11:23:02;96314.56;;;26.95;42.73
64610;BME280;51019;46.090;6.350;2023-05-29T11:25:36;96333.44;;;26.40;42.43
64610;BME280;51019;46.090;6.350;2023-05-29T11:28:04;96331.03;;;26.44;43.63
64610;BME280;51019;46.090;6.350;2023-05-29T11:30:44;96320.41;;;27.14;43.20
64610;BME280;51019;46.090;6.350;2023-05-29T11:33:23;96319.44;;;26.60;42.29
64610;BME280;51019;46.090;6.350;2023-05-29T11:35:56;96326.63;;;26.76;43.10
64610;BME280;51019;46.090;6.350;2023-05-29T11:38:25;96320.97;;;27.16;41.51
64610;BME280;51019;46.090;6.350;2023-05-29T11:40:55;96314.72;;;27.91;39.73
64610;BME280;51019;46.090;6.350;2023-05-29T11:43:24;96319.59;;;28.21;40.24
64610;BME280;51019;46.090;6.350;2023-05-29T11:45:52;96320.56;;;27.51;40.54
64610;BME280;51019;46.090;6.350;2023-05-29T11:48:20;96307.84;;;27.46;40.26
64610;BME280;51019;46.090;6.350;2023-05-29T11:50:49;96314.19;;;28.21;41.13
64610;BME280;51019;46.090;6.350;2023-05-29T11:53:17;96309.44;;;27.42;40.11
64610;BME280;51019;46.090;6.350;2023-05-29T11:55:45;96305.09;;;27.95;39.41
64610;BME280;51019;46.090;6.350;2023-05-29T11:58:14;96308.00;;;28.21;40.27
64610;BME280;51019;46.090;6.350;2023-05-29T12:00:42;96289.25;;;28.04;39.41
64610;BME280;51019;46.090;6.350;2023-05-29T12:03:12;96310.41;;;28.22;39.65
64610;BME280;51019;46.090;6.350;2023-05-29T12:05:47;96294.50;;;27.89;40.38
64610;BME280;51019;46.090;6.350;2023-05-29T12:08:21;96291.13;;;28.03;39.89
64610;BME280;51019;46.090;6.350;2023-05-29T12:10:50;96301.63;;;28.37;40.16
64610;BME280;51019;46.090;6.350;2023-05-29T12:13:20;96278.84;;;28.60;39.62
64610;BME280;51019;46.090;6.350;2023-05-29T12:15:52;96295.03;;;28.17;39.07
64610;BME280;51019;46.090;6.350;2023-05-29T12:18:20;96288.81;;;28.59;40.38
64610;BME280;51019;46.090;6.350;2023-05-29T12:20:49;96291.03;;;28.25;40.06
64610;BME280;51019;46.090;6.350;2023-05-29T12:23:18;96286.69;;;28.66;38.88
64610;BME280;51019;46.090;6.350;2023-05-29T12:25:46;96287.59;;;28.35;38.28
64610;BME280;51019;46.090;6.350;2023-05-29T12:28:16;96286.53;;;28.78;38.71
64610;BME280;51019;46.090;6.350;2023-05-29T12:30:47;96284.59;;;28.78;39.10
64610;BME280;51019;46.090;6.350;2023-05-29T12:33:25;96273.03;;;28.36;37.64
64610;BME280;51019;46.090;6.350;2023-05-29T12:36:00;96276.00;;;28.81;36.62
64610;BME280;51019;46.090;6.350;2023-05-29T12:38:28;96279.13;;;28.68;38.24
64610;BME280;51019;46.090;6.350;2023-05-29T12:40:57;96276.63;;;29.04;37.56
64610;BME280;51019;46.090;6.350;2023-05-29T12:43:28;96281.00;;;29.20;37.04
64610;BME280;51019;46.090;6.350;2023-05-29T12:45:59;96274.34;;;27.91;37.49
64610;BME280;51019;46.090;6.350;2023-05-29T12:48:27;96264.19;;;27.39;39.12
64610;BME280;51019;46.090;6.350;2023-05-29T12:50:55;96260.59;;;27.88;38.33
64610;BME280;51019;46.090;6.350;2023-05-29T12:53:28;96256.78;;;28.73;37.88
64610;BME280;51019;46.090;6.350;2023-05-29T12:55:57;96252.06;;;29.05;37.80
64610;BME280;51019;46.090;6.350;2023-05-29T12:58:24;96247.59;;;28.69;37.68
64610;BME280;51019;46.090;6.350;2023-05-29T13:00:53;96244.00;;;29.15;37.61
64610;BME280;51019;46.090;6.350;2023-05-29T13:03:24;96235.97;;;29.41;39.18
64610;BME280;51019;46.090;6.350;2023-05-29T13:05:51;96246.41;;;29.07;36.84
64610;BME280;51019;46.090;6.350;2023-05-29T13:08:19;96248.13;;;29.38;37.78